createdAt,value
2019-05-30T00:00:20.138Z,1014.46
2019-05-30T00:01:20.117Z,1014.46
2019-05-30T00:02:20.106Z,1014.45
2019-05-30T00:03:20.131Z,1014.44
2019-05-30T00:04:20.084Z,1014.47
2019-05-30T00:05:20.078Z,1014.41
2019-05-30T00:06:20.071Z,1014.42
2019-05-30T00:07:20.056Z,1014.43
2019-05-30T00:08:20.064Z,1014.44
2019-05-30T00:09:20.034Z,1014.37
2019-05-30T00:10:20.023Z,1014.44
2019-05-30T00:11:20.011Z,1014.43
2019-05-30T00:12:20.005Z,1014.43
2019-05-30T00:13:20.002Z,1014.43
2019-05-30T00:14:19.993Z,1014.40
2019-05-30T00:15:19.981Z,1014.38
2019-05-30T00:16:19.960Z,1014.41
2019-05-30T00:17:19.945Z,1014.43
2019-05-30T00:18:19.957Z,1014.45
2019-05-30T00:19:19.926Z,1014.37
2019-05-30T00:20:19.913Z,1014.40
2019-05-30T00:21:19.913Z,1014.39
2019-05-30T00:22:19.888Z,1014.42
2019-05-30T00:23:19.886Z,1014.41
2019-05-30T00:24:19.865Z,1014.47
2019-05-30T00:25:19.864Z,1014.48
2019-05-30T00:26:19.858Z,1014.44
2019-05-30T00:27:19.839Z,1014.48
2019-05-30T00:28:19.824Z,1014.47
2019-05-30T00:29:19.817Z,1014.49
2019-05-30T00:30:24.450Z,1014.45
2019-05-30T00:31:20.811Z,1014.49
2019-05-30T00:32:19.778Z,1014.47
2019-05-30T00:33:19.790Z,1014.46
2019-05-30T00:34:19.760Z,1014.48
2019-05-30T00:35:19.745Z,1014.48
2019-05-30T00:36:19.741Z,1014.47
2019-05-30T00:37:19.731Z,1014.48
2019-05-30T00:38:19.711Z,1014.44
2019-05-30T00:39:19.700Z,1014.43
2019-05-30T00:40:19.710Z,1014.42
2019-05-30T00:41:19.679Z,1014.42
2019-05-30T00:42:19.678Z,1014.38
2019-05-30T00:43:19.654Z,1014.42
2019-05-30T00:44:19.647Z,1014.41
2019-05-30T00:45:21.202Z,1014.42
2019-05-30T00:46:19.627Z,1014.42
2019-05-30T00:47:19.651Z,1014.35
2019-05-30T00:48:19.607Z,1014.38
2019-05-30T00:49:19.586Z,1014.37
2019-05-30T00:50:19.592Z,1014.37
2019-05-30T00:51:19.563Z,1014.36
2019-05-30T00:52:19.553Z,1014.40
2019-05-30T00:53:19.560Z,1014.36
2019-05-30T00:54:19.545Z,1014.38
2019-05-30T00:55:19.519Z,1014.38
2019-05-30T00:56:19.516Z,1014.38
2019-05-30T00:57:19.503Z,1014.34
2019-05-30T00:58:19.492Z,1014.36
2019-05-30T00:59:19.493Z,1014.36
2019-05-30T01:00:19.468Z,1014.33
2019-05-30T01:01:19.460Z,1014.31
2019-05-30T01:02:19.445Z,1014.33
2019-05-30T01:03:19.430Z,1014.32
2019-05-30T01:04:19.428Z,1014.35
2019-05-30T01:05:19.423Z,1014.30
2019-05-30T01:06:19.402Z,1014.33
2019-05-30T01:07:19.392Z,1014.35
2019-05-30T01:08:19.390Z,1014.32
2019-05-30T01:09:19.364Z,1014.34
2019-05-30T01:10:19.368Z,1014.33
2019-05-30T01:11:19.344Z,1014.32
2019-05-30T01:12:19.329Z,1014.33
2019-05-30T01:13:19.326Z,1014.33
2019-05-30T01:14:19.315Z,1014.28
2019-05-30T01:15:19.296Z,1014.31
2019-05-30T01:16:19.298Z,1014.27
2019-05-30T01:17:19.281Z,1014.27
2019-05-30T01:18:19.264Z,1014.32
2019-05-30T01:19:19.271Z,1014.30
2019-05-30T01:20:19.252Z,1014.30
2019-05-30T01:21:19.242Z,1014.26
2019-05-30T01:22:19.222Z,1014.25
2019-05-30T01:23:19.212Z,1014.24
2019-05-30T01:24:19.199Z,1014.28
2019-05-30T01:25:19.203Z,1014.23
2019-05-30T01:26:19.235Z,1014.23
2019-05-30T01:27:19.174Z,1014.25
2019-05-30T01:28:19.155Z,1014.24
2019-05-30T01:29:19.147Z,1014.21
2019-05-30T01:30:19.148Z,1014.28
2019-05-30T01:31:19.142Z,1014.25
2019-05-30T01:32:19.135Z,1014.21
2019-05-30T01:33:19.097Z,1014.23
2019-05-30T01:34:19.102Z,1014.23
2019-05-30T01:35:19.073Z,1014.25
2019-05-30T01:36:19.062Z,1014.23
2019-05-30T01:37:19.055Z,1014.24
2019-05-30T01:38:19.042Z,1014.19
2019-05-30T01:39:19.037Z,1014.19
2019-05-30T01:40:19.040Z,1014.16
2019-05-30T01:41:19.015Z,1014.14
2019-05-30T01:42:19.006Z,1014.14
2019-05-30T01:43:18.992Z,1014.14
2019-05-30T01:44:18.979Z,1014.11
2019-05-30T01:45:18.962Z,1014.10
2019-05-30T01:46:18.968Z,1014.11
2019-05-30T01:47:18.939Z,1014.08
2019-05-30T01:48:18.944Z,1014.09
2019-05-30T01:49:18.918Z,1014.11
2019-05-30T01:50:18.907Z,1014.08
2019-05-30T01:51:18.897Z,1014.12
2019-05-30T01:52:18.888Z,1014.05
2019-05-30T01:53:18.877Z,1014.08
2019-05-30T01:54:18.885Z,1014.06
2019-05-30T01:55:18.851Z,1014.11
2019-05-30T01:56:18.856Z,1014.10
2019-05-30T01:57:18.828Z,1014.05
2019-05-30T01:58:18.823Z,1014.06
2019-05-30T01:59:18.821Z,1014.08
2019-05-30T02:00:21.574Z,1014.05
2019-05-30T02:01:24.765Z,1014.03
2019-05-30T02:02:19.781Z,1014.06
2019-05-30T02:03:18.775Z,1014.07
2019-05-30T02:04:18.750Z,1014.09
2019-05-30T02:05:18.780Z,1014.05
2019-05-30T02:06:18.758Z,1014.05
2019-05-30T02:07:18.721Z,1014.03
2019-05-30T02:08:18.705Z,1014.04
2019-05-30T02:09:18.701Z,1014.03
2019-05-30T02:10:18.689Z,1014.03
2019-05-30T02:11:18.685Z,1014.03
2019-05-30T02:12:18.663Z,1014.04
2019-05-30T02:13:18.655Z,1014.00
2019-05-30T02:14:18.645Z,1014.02
2019-05-30T02:15:18.645Z,1014.00
2019-05-30T02:16:18.645Z,1014.01
2019-05-30T02:17:18.606Z,1013.99
2019-05-30T02:18:18.593Z,1014.01
2019-05-30T02:19:18.589Z,1014.03
2019-05-30T02:20:18.580Z,1014.03
2019-05-30T02:21:18.574Z,1014.01
2019-05-30T02:22:18.576Z,1014.05
2019-05-30T02:23:18.536Z,1014.02
2019-05-30T02:24:18.528Z,1014.01
2019-05-30T02:25:18.528Z,1014.05
2019-05-30T02:26:18.506Z,1014.04
2019-05-30T02:27:18.506Z,1014.04
2019-05-30T02:28:18.483Z,1014.03
2019-05-30T02:29:18.483Z,1014.03
2019-05-30T02:30:18.460Z,1014.00
2019-05-30T02:31:37.856Z,1014.03
2019-05-30T02:32:19.437Z,1014.02
2019-05-30T02:33:18.439Z,1014.03
2019-05-30T02:34:18.416Z,1013.99
2019-05-30T02:35:18.404Z,1014.01
2019-05-30T02:36:18.397Z,1014.00
2019-05-30T02:37:18.391Z,1014.02
2019-05-30T02:38:18.388Z,1013.98
2019-05-30T02:39:18.361Z,1013.94
2019-05-30T02:40:18.351Z,1014.00
2019-05-30T02:41:18.355Z,1014.03
2019-05-30T02:42:18.330Z,1013.98
2019-05-30T02:43:18.338Z,1014.03
2019-05-30T02:44:18.309Z,1014.01
2019-05-30T02:45:18.294Z,1013.99
2019-05-30T02:46:18.281Z,1014.00
2019-05-30T02:47:22.202Z,1013.96
2019-05-30T02:48:18.271Z,1014.03
2019-05-30T02:49:18.252Z,1013.95
2019-05-30T02:50:18.270Z,1014.02
2019-05-30T02:51:18.230Z,1014.00
2019-05-30T02:52:18.224Z,1013.99
2019-05-30T02:53:18.214Z,1013.98
2019-05-30T02:54:18.192Z,1014.01
2019-05-30T02:55:18.185Z,1013.98
2019-05-30T02:56:18.216Z,1013.99
2019-05-30T02:57:18.163Z,1014.00
2019-05-30T02:58:18.159Z,1014.00
2019-05-30T02:59:18.144Z,1014.01
2019-05-30T03:00:18.428Z,1014.00
2019-05-30T03:01:18.121Z,1014.01
2019-05-30T03:02:18.137Z,1014.01
2019-05-30T03:03:18.092Z,1014.01
2019-05-30T03:04:18.082Z,1014.04
2019-05-30T03:05:18.070Z,1014.02
2019-05-30T03:06:18.095Z,1014.01
2019-05-30T03:07:18.075Z,1013.99
2019-05-30T03:08:18.052Z,1014.00
2019-05-30T03:09:18.035Z,1014.03
2019-05-30T03:10:18.013Z,1013.99
2019-05-30T03:11:18.003Z,1014.02
2019-05-30T03:12:18.003Z,1014.01
2019-05-30T03:13:17.997Z,1014.01
2019-05-30T03:14:19.779Z,1014.04
2019-05-30T03:15:17.974Z,1013.99
2019-05-30T03:16:17.951Z,1014.00
2019-05-30T03:17:17.942Z,1014.01
2019-05-30T03:18:17.944Z,1013.98
2019-05-30T03:19:17.921Z,1013.99
2019-05-30T03:20:22.893Z,1014.03
2019-05-30T03:21:18.893Z,1014.03
2019-05-30T03:22:17.881Z,1013.97
2019-05-30T03:23:17.872Z,1014.04
2019-05-30T03:24:17.902Z,1014.07
2019-05-30T03:25:17.895Z,1014.04
2019-05-30T03:26:17.836Z,1014.06
2019-05-30T03:27:17.826Z,1014.06
2019-05-30T03:28:17.822Z,1014.10
2019-05-30T03:29:17.808Z,1014.04
2019-05-30T03:30:26.760Z,1014.06
2019-05-30T03:31:27.696Z,1014.03
2019-05-30T03:33:00.406Z,1014.08
2019-05-30T03:33:37.589Z,1014.04
2019-05-30T03:34:27.560Z,1014.07
2019-05-30T03:35:28.827Z,1014.06
2019-05-30T03:36:28.303Z,1014.06
2019-05-30T03:37:27.798Z,1014.06
2019-05-30T03:38:18.710Z,1014.05
2019-05-30T03:39:17.695Z,1014.06
2019-05-30T03:40:18.522Z,1014.05
2019-05-30T03:41:17.671Z,1014.04
2019-05-30T03:42:17.670Z,1014.01
2019-05-30T03:43:17.647Z,1014.02
2019-05-30T03:44:17.657Z,1014.01
2019-05-30T03:45:17.630Z,1014.03
2019-05-30T03:46:17.630Z,1014.01
2019-05-30T03:47:17.629Z,1014.04
2019-05-30T03:48:17.590Z,1014.03
2019-05-30T03:49:17.578Z,1014.02
2019-05-30T03:50:17.942Z,1014.03
2019-05-30T03:51:17.569Z,1014.01
2019-05-30T03:52:17.641Z,1014.02
2019-05-30T03:53:17.533Z,1013.99
2019-05-30T03:54:17.539Z,1014.01
2019-05-30T03:55:17.513Z,1013.94
2019-05-30T03:56:17.499Z,1013.99
2019-05-30T03:57:17.510Z,1013.97
2019-05-30T03:58:20.401Z,1013.92
2019-05-30T03:59:18.032Z,1013.99
2019-05-30T04:00:18.638Z,1013.97
2019-05-30T04:01:18.675Z,1013.97
2019-05-30T04:02:18.978Z,1013.98
2019-05-30T04:03:19.170Z,1014.00
2019-05-30T04:04:19.063Z,1013.97
2019-05-30T04:05:19.323Z,1013.98
2019-05-30T04:06:18.944Z,1013.98
2019-05-30T04:07:19.433Z,1014.02
2019-05-30T04:08:19.489Z,1013.96
2019-05-30T04:09:22.365Z,1013.95
2019-05-30T04:10:19.833Z,1013.98
2019-05-30T04:11:17.332Z,1014.00
2019-05-30T04:12:17.323Z,1013.98
2019-05-30T04:13:19.234Z,1013.98
2019-05-30T04:14:19.175Z,1013.98
2019-05-30T04:15:18.798Z,1013.97
2019-05-30T04:16:17.305Z,1014.01
2019-05-30T04:17:18.323Z,1013.97
2019-05-30T04:18:17.258Z,1014.00
2019-05-30T04:19:19.743Z,1014.00
2019-05-30T04:20:21.165Z,1013.97
2019-05-30T04:21:21.284Z,1013.98
2019-05-30T04:22:17.222Z,1014.01
2019-05-30T04:23:19.247Z,1014.02
2019-05-30T04:24:17.190Z,1014.01
2019-05-30T04:25:18.565Z,1014.01
2019-05-30T04:26:18.183Z,1014.00
2019-05-30T04:27:18.617Z,1014.02
2019-05-30T04:28:18.725Z,1014.00
2019-05-30T04:29:18.844Z,1014.03
2019-05-30T04:30:18.499Z,1014.08
2019-05-30T04:31:19.168Z,1014.06
2019-05-30T04:32:18.502Z,1014.06
2019-05-30T04:33:29.156Z,1014.08
2019-05-30T04:34:19.578Z,1014.10
2019-05-30T04:35:18.800Z,1014.12
2019-05-30T04:36:18.915Z,1014.13
2019-05-30T04:37:18.590Z,1014.15
2019-05-30T04:38:17.407Z,1014.13
2019-05-30T04:39:17.224Z,1014.07
2019-05-30T04:40:17.709Z,1014.13
2019-05-30T04:41:19.123Z,1014.09
2019-05-30T04:42:18.823Z,1014.08
2019-05-30T04:43:17.932Z,1014.10
2019-05-30T04:44:18.166Z,1014.10
2019-05-30T04:45:18.025Z,1014.14
2019-05-30T04:46:19.206Z,1014.05
2019-05-30T04:47:18.447Z,1014.05
2019-05-30T04:48:18.619Z,1014.09
2019-05-30T04:49:19.098Z,1014.07
2019-05-30T04:50:18.625Z,1014.11
2019-05-30T04:51:19.010Z,1014.07
2019-05-30T04:52:21.038Z,1014.07
2019-05-30T04:53:18.475Z,1014.10
2019-05-30T04:54:18.951Z,1014.13
2019-05-30T04:55:18.502Z,1014.05
2019-05-30T04:56:17.639Z,1014.13
2019-05-30T04:57:16.972Z,1014.09
2019-05-30T04:58:17.930Z,1014.03
2019-05-30T04:59:17.495Z,1014.08
2019-05-30T05:00:17.142Z,1014.07
2019-05-30T05:01:17.689Z,1014.05
2019-05-30T05:02:18.790Z,1014.08
2019-05-30T05:03:28.830Z,1014.11
2019-05-30T05:04:19.400Z,1014.14
2019-05-30T05:05:22.578Z,1014.06
2019-05-30T05:06:17.981Z,1014.05
2019-05-30T05:07:17.871Z,1014.09
2019-05-30T05:08:17.978Z,1014.10
2019-05-30T05:09:18.186Z,1014.10
2019-05-30T05:10:18.088Z,1014.15
2019-05-30T05:11:20.489Z,1014.13
2019-05-30T05:12:18.207Z,1014.19
2019-05-30T05:13:16.636Z,1014.18
2019-05-30T05:14:16.625Z,1014.17
2019-05-30T05:15:16.646Z,1014.16
2019-05-30T05:16:25.937Z,1014.17
2019-05-30T05:17:18.837Z,1014.20
2019-05-30T05:18:16.998Z,1014.21
2019-05-30T05:19:17.189Z,1014.19
2019-05-30T05:20:17.260Z,1014.22
2019-05-30T05:21:16.871Z,1014.15
2019-05-30T05:22:17.010Z,1014.21
2019-05-30T05:23:17.250Z,1014.21
2019-05-30T05:24:17.317Z,1014.22
2019-05-30T05:25:17.424Z,1014.23
2019-05-30T05:26:17.433Z,1014.20
2019-05-30T05:27:17.573Z,1014.24
2019-05-30T05:28:17.678Z,1014.25
2019-05-30T05:29:16.476Z,1014.24
2019-05-30T05:30:16.491Z,1014.23
2019-05-30T05:31:16.638Z,1014.26
2019-05-30T05:32:16.425Z,1014.24
2019-05-30T05:33:16.744Z,1014.14
2019-05-30T05:34:16.607Z,1014.19
2019-05-30T05:35:16.768Z,1014.16
2019-05-30T05:36:16.891Z,1014.23
2019-05-30T05:37:17.009Z,1014.19
2019-05-30T05:38:16.371Z,1014.11
2019-05-30T05:39:16.346Z,1014.17
2019-05-30T05:40:16.338Z,1014.19
2019-05-30T05:41:16.341Z,1014.23
2019-05-30T05:42:16.440Z,1014.21
2019-05-30T05:43:16.808Z,1014.17
2019-05-30T05:44:16.299Z,1014.19
2019-05-30T05:45:16.347Z,1014.22
2019-05-30T05:46:16.477Z,1014.21
2019-05-30T05:47:16.460Z,1014.19
2019-05-30T05:48:16.555Z,1014.20
2019-05-30T05:49:16.363Z,1014.22
2019-05-30T05:50:16.823Z,1014.25
2019-05-30T05:51:16.546Z,1014.22
2019-05-30T05:52:16.944Z,1014.25
2019-05-30T05:53:16.622Z,1014.27
2019-05-30T05:54:16.832Z,1014.27
2019-05-30T05:55:16.683Z,1014.27
2019-05-30T05:56:16.919Z,1014.30
2019-05-30T05:57:16.742Z,1014.29
2019-05-30T05:58:16.814Z,1014.32
2019-05-30T05:59:17.034Z,1014.35
2019-05-30T06:00:16.877Z,1014.37
2019-05-30T06:01:17.245Z,1014.28
2019-05-30T06:02:17.497Z,1014.29
2019-05-30T06:03:16.798Z,1014.33
2019-05-30T06:04:17.203Z,1014.33
2019-05-30T06:05:16.084Z,1014.32
2019-05-30T06:06:17.150Z,1014.38
2019-05-30T06:07:16.154Z,1014.41
2019-05-30T06:08:17.250Z,1014.45
2019-05-30T06:09:16.391Z,1014.38
2019-05-30T06:10:16.026Z,1014.44
2019-05-30T06:11:16.567Z,1014.43
2019-05-30T06:12:15.982Z,1014.47
2019-05-30T06:13:16.608Z,1014.40
2019-05-30T06:14:15.956Z,1014.45
2019-05-30T06:15:16.834Z,1014.60
2019-05-30T06:16:15.953Z,1014.52
2019-05-30T06:17:16.954Z,1014.51
2019-05-30T06:18:15.926Z,1014.55
2019-05-30T06:19:17.091Z,1014.65
2019-05-30T06:20:17.230Z,1014.59
2019-05-30T06:21:17.112Z,1014.56
2019-05-30T06:22:15.883Z,1014.69
2019-05-30T06:23:15.857Z,1014.61
2019-05-30T06:24:15.852Z,1014.69
2019-05-30T06:25:15.836Z,1014.72
2019-05-30T06:26:15.861Z,1014.67
2019-05-30T06:27:15.818Z,1014.69
2019-05-30T06:28:15.802Z,1014.68
2019-05-30T06:29:15.791Z,1014.78
2019-05-30T06:30:15.781Z,1014.79
2019-05-30T06:31:15.787Z,1014.77
2019-05-30T06:32:15.773Z,1014.71
2019-05-30T06:33:15.745Z,1014.74
2019-05-30T06:34:28.277Z,1014.70
2019-05-30T06:35:16.722Z,1014.75
2019-05-30T06:36:15.715Z,1014.74
2019-05-30T06:37:15.725Z,1014.76
2019-05-30T06:38:15.696Z,1014.74
2019-05-30T06:39:15.684Z,1014.80
2019-05-30T06:40:15.668Z,1014.78
2019-05-30T06:41:15.663Z,1014.77
2019-05-30T06:42:15.649Z,1014.80
2019-05-30T06:43:15.708Z,1014.81
2019-05-30T06:44:15.624Z,1014.85
2019-05-30T06:45:15.621Z,1014.85
2019-05-30T06:46:15.606Z,1014.84
2019-05-30T06:47:15.594Z,1014.80
2019-05-30T06:48:15.597Z,1014.81
2019-05-30T06:49:15.574Z,1014.82
2019-05-30T06:50:15.575Z,1014.79
2019-05-30T06:51:15.567Z,1014.80
2019-05-30T06:52:15.542Z,1014.79
2019-05-30T06:53:15.542Z,1014.82
2019-05-30T06:54:15.528Z,1014.82
2019-05-30T06:55:15.520Z,1014.82
2019-05-30T06:56:15.494Z,1014.85
2019-05-30T06:57:15.487Z,1014.88
2019-05-30T06:58:15.473Z,1014.86
2019-05-30T06:59:15.471Z,1014.82
2019-05-30T07:00:15.455Z,1014.79
2019-05-30T07:01:15.438Z,1014.82
2019-05-30T07:02:15.439Z,1014.82
2019-05-30T07:03:15.439Z,1014.83
2019-05-30T07:04:15.954Z,1014.87
2019-05-30T07:05:16.103Z,1014.85
2019-05-30T07:06:15.905Z,1014.88
2019-05-30T07:07:15.574Z,1014.84
2019-05-30T07:08:15.360Z,1014.86
2019-05-30T07:09:15.358Z,1014.96
2019-05-30T07:10:15.337Z,1014.90
2019-05-30T07:11:15.343Z,1014.96
2019-05-30T07:12:15.314Z,1014.96
2019-05-30T07:13:15.304Z,1014.91
2019-05-30T07:14:15.294Z,1014.95
2019-05-30T07:15:15.280Z,1015.00
2019-05-30T07:16:15.318Z,1014.98
2019-05-30T07:17:15.274Z,1015.02
2019-05-30T07:18:15.250Z,1015.00
2019-05-30T07:19:15.241Z,1015.01
2019-05-30T07:20:15.225Z,1015.03
2019-05-30T07:21:15.237Z,1015.03
2019-05-30T07:22:15.220Z,1015.01
2019-05-30T07:23:15.196Z,1015.10
2019-05-30T07:24:15.182Z,1015.06
2019-05-30T07:25:15.170Z,1015.11
2019-05-30T07:26:15.161Z,1015.07
2019-05-30T07:27:15.174Z,1015.11
2019-05-30T07:28:15.136Z,1015.03
2019-05-30T07:29:15.125Z,1015.10
2019-05-30T07:30:15.116Z,1015.07
2019-05-30T07:31:15.111Z,1015.08
2019-05-30T07:32:15.094Z,1015.06
2019-05-30T07:33:15.099Z,1015.06
2019-05-30T07:34:15.074Z,1015.05
2019-05-30T07:35:15.065Z,1015.12
2019-05-30T07:36:15.065Z,1015.12
2019-05-30T07:37:15.051Z,1015.11
2019-05-30T07:38:15.047Z,1015.09
2019-05-30T07:39:15.020Z,1015.15
2019-05-30T07:40:19.443Z,1015.10
2019-05-30T07:41:14.992Z,1015.17
2019-05-30T07:42:14.997Z,1015.13
2019-05-30T07:43:14.970Z,1015.21
2019-05-30T07:44:14.970Z,1015.15
2019-05-30T07:45:14.948Z,1015.28
2019-05-30T07:46:14.936Z,1015.23
2019-05-30T07:47:14.934Z,1015.22
2019-05-30T07:48:14.914Z,1015.25
2019-05-30T07:49:14.922Z,1015.30
2019-05-30T07:50:14.894Z,1015.31
2019-05-30T07:51:14.881Z,1015.31
2019-05-30T07:52:14.870Z,1015.32
2019-05-30T07:53:14.864Z,1015.29
2019-05-30T07:54:14.854Z,1015.34
2019-05-30T07:55:14.854Z,1015.29
2019-05-30T07:56:14.833Z,1015.34
2019-05-30T07:57:14.815Z,1015.40
2019-05-30T07:58:14.812Z,1015.39
2019-05-30T07:59:14.794Z,1015.40
2019-05-30T08:00:14.803Z,1015.42
2019-05-30T08:01:14.780Z,1015.47
2019-05-30T08:02:14.765Z,1015.46
2019-05-30T08:03:14.755Z,1015.45
2019-05-30T08:04:14.738Z,1015.41
2019-05-30T08:05:24.111Z,1015.47
2019-05-30T08:06:15.763Z,1015.46
2019-05-30T08:07:14.705Z,1015.45
2019-05-30T08:08:14.697Z,1015.42
2019-05-30T08:09:14.683Z,1015.41
2019-05-30T08:10:14.684Z,1015.48
2019-05-30T08:11:14.661Z,1015.44
2019-05-30T08:12:14.668Z,1015.43
2019-05-30T08:13:14.651Z,1015.43
2019-05-30T08:14:14.638Z,1015.41
2019-05-30T08:15:14.617Z,1015.42
2019-05-30T08:16:14.619Z,1015.44
2019-05-30T08:17:14.613Z,1015.49
2019-05-30T08:18:14.585Z,1015.42
2019-05-30T08:19:14.577Z,1015.53
2019-05-30T08:20:14.571Z,1015.49
2019-05-30T08:21:14.551Z,1015.48
2019-05-30T08:22:14.670Z,1015.45
2019-05-30T08:23:14.528Z,1015.44
2019-05-30T08:24:14.537Z,1015.39
2019-05-30T08:25:14.508Z,1015.43
2019-05-30T08:26:17.731Z,1015.45
2019-05-30T08:27:14.523Z,1015.43
2019-05-30T08:28:14.508Z,1015.48
2019-05-30T08:29:14.468Z,1015.45
2019-05-30T08:30:14.468Z,1015.47
2019-05-30T08:31:14.470Z,1015.44
2019-05-30T08:32:14.441Z,1015.43
2019-05-30T08:33:14.436Z,1015.44
2019-05-30T08:34:14.425Z,1015.44
2019-05-30T08:35:14.402Z,1015.46
2019-05-30T08:36:14.405Z,1015.44
2019-05-30T08:37:14.372Z,1015.45
2019-05-30T08:38:14.378Z,1015.41
2019-05-30T08:39:14.417Z,1015.37
2019-05-30T08:40:14.358Z,1015.29
2019-05-30T08:41:14.336Z,1015.33
2019-05-30T08:42:14.359Z,1015.34
2019-05-30T08:43:14.323Z,1015.35
2019-05-30T08:44:14.301Z,1015.35
2019-05-30T08:45:14.306Z,1015.34
2019-05-30T08:46:14.275Z,1015.38
2019-05-30T08:47:14.289Z,1015.36
2019-05-30T08:48:14.255Z,1015.43
2019-05-30T08:49:14.246Z,1015.37
2019-05-30T08:50:14.262Z,1015.42
2019-05-30T08:51:14.235Z,1015.45
2019-05-30T08:52:14.208Z,1015.45
2019-05-30T08:53:14.200Z,1015.44
2019-05-30T08:54:14.321Z,1015.44
2019-05-30T08:55:14.174Z,1015.39
2019-05-30T08:56:14.186Z,1015.40
2019-05-30T08:57:14.164Z,1015.38
2019-05-30T08:58:14.166Z,1015.37
2019-05-30T08:59:14.173Z,1015.41
2019-05-30T09:00:14.118Z,1015.40
2019-05-30T09:01:14.128Z,1015.39
2019-05-30T09:02:14.129Z,1015.38
2019-05-30T09:03:14.098Z,1015.42
2019-05-30T09:04:14.088Z,1015.41
2019-05-30T09:05:14.070Z,1015.43
2019-05-30T09:06:14.065Z,1015.44
2019-05-30T09:07:14.058Z,1015.39
2019-05-30T09:08:14.045Z,1015.42
2019-05-30T09:09:14.044Z,1015.43
2019-05-30T09:10:14.011Z,1015.39
2019-05-30T09:11:13.999Z,1015.41
2019-05-30T09:12:13.992Z,1015.42
2019-05-30T09:13:14.006Z,1015.40
2019-05-30T09:14:13.968Z,1015.41
2019-05-30T09:15:13.957Z,1015.41
2019-05-30T09:16:13.954Z,1015.43
2019-05-30T09:17:13.931Z,1015.43
2019-05-30T09:18:13.920Z,1015.44
2019-05-30T09:19:13.934Z,1015.40
2019-05-30T09:20:13.918Z,1015.39
2019-05-30T09:21:13.898Z,1015.47
2019-05-30T09:22:13.880Z,1015.44
2019-05-30T09:23:13.871Z,1015.45
2019-05-30T09:24:13.889Z,1015.44
2019-05-30T09:25:13.859Z,1015.48
2019-05-30T09:26:13.836Z,1015.45
2019-05-30T09:27:13.825Z,1015.41
2019-05-30T09:28:13.834Z,1015.44
2019-05-30T09:29:13.802Z,1015.40
2019-05-30T09:30:13.998Z,1015.40
2019-05-30T09:31:13.798Z,1015.43
2019-05-30T09:32:13.767Z,1015.43
2019-05-30T09:33:13.781Z,1015.46
2019-05-30T09:34:13.770Z,1015.57
2019-05-30T09:35:13.762Z,1015.53
2019-05-30T09:36:14.147Z,1015.60
2019-05-30T09:37:13.749Z,1015.50
2019-05-30T09:38:13.701Z,1015.49
2019-05-30T09:39:13.696Z,1015.56
2019-05-30T09:40:13.700Z,1015.48
2019-05-30T09:41:13.698Z,1015.58
2019-05-30T09:42:13.693Z,1015.54
2019-05-30T09:43:13.664Z,1015.56
2019-05-30T09:44:13.639Z,1015.54
2019-05-30T09:45:13.630Z,1015.51
2019-05-30T09:46:13.615Z,1015.53
2019-05-30T09:47:13.609Z,1015.50
2019-05-30T09:48:13.631Z,1015.49
2019-05-30T09:49:13.577Z,1015.48
2019-05-30T09:50:13.584Z,1015.49
2019-05-30T09:51:13.567Z,1015.49
2019-05-30T09:52:13.556Z,1015.57
2019-05-30T09:53:13.565Z,1015.51
2019-05-30T09:54:13.538Z,1015.54
2019-05-30T09:55:13.525Z,1015.57
2019-05-30T09:56:13.509Z,1015.59
2019-05-30T09:57:13.508Z,1015.57
2019-05-30T09:58:13.725Z,1015.64
2019-05-30T09:59:13.472Z,1015.62
2019-05-30T10:00:13.466Z,1015.67
2019-05-30T10:01:13.451Z,1015.65
2019-05-30T10:02:13.437Z,1015.65
2019-05-30T10:03:13.449Z,1015.67
2019-05-30T10:04:13.426Z,1015.65
2019-05-30T10:05:13.407Z,1015.64
2019-05-30T10:06:28.508Z,1015.63
2019-05-30T10:07:14.389Z,1015.65
2019-05-30T10:08:13.372Z,1015.61
2019-05-30T10:09:13.387Z,1015.64
2019-05-30T10:10:13.344Z,1015.65
2019-05-30T10:11:16.072Z,1015.69
2019-05-30T10:12:13.356Z,1015.71
2019-05-30T10:13:13.315Z,1015.67
2019-05-30T10:14:13.312Z,1015.75
2019-05-30T10:15:13.308Z,1015.71
2019-05-30T10:16:13.279Z,1015.72
2019-05-30T10:17:13.273Z,1015.71
2019-05-30T10:18:13.265Z,1015.76
2019-05-30T10:19:13.296Z,1015.72
2019-05-30T10:20:13.239Z,1015.71
2019-05-30T10:21:13.239Z,1015.72
2019-05-30T10:22:13.220Z,1015.73
2019-05-30T10:23:13.202Z,1015.73
2019-05-30T10:24:13.209Z,1015.73
2019-05-30T10:25:13.188Z,1015.75
2019-05-30T10:26:13.186Z,1015.73
2019-05-30T10:27:13.182Z,1015.72
2019-05-30T10:28:13.149Z,1015.74
2019-05-30T10:29:13.134Z,1015.71
2019-05-30T10:30:13.135Z,1015.76
2019-05-30T10:31:13.134Z,1015.73
2019-05-30T10:32:13.124Z,1015.77
2019-05-30T10:33:13.092Z,1015.77
2019-05-30T10:34:13.080Z,1015.73
2019-05-30T10:35:13.077Z,1015.75
2019-05-30T10:36:14.776Z,1015.80
2019-05-30T10:37:13.062Z,1015.73
2019-05-30T10:38:13.040Z,1015.73
2019-05-30T10:39:13.047Z,1015.74
2019-05-30T10:40:13.019Z,1015.78
2019-05-30T10:41:13.067Z,1015.76
2019-05-30T10:42:12.995Z,1015.74
2019-05-30T10:43:13.013Z,1015.72
2019-05-30T10:44:12.993Z,1015.75
2019-05-30T10:45:12.993Z,1015.80
2019-05-30T10:46:12.962Z,1015.80
2019-05-30T10:47:12.960Z,1015.79
2019-05-30T10:48:12.926Z,1015.80
2019-05-30T10:49:12.922Z,1015.84
2019-05-30T10:50:12.910Z,1015.83
2019-05-30T10:51:12.896Z,1015.85
2019-05-30T10:52:12.884Z,1015.88
2019-05-30T10:53:12.886Z,1015.88
2019-05-30T10:54:12.875Z,1015.88
2019-05-30T10:55:12.900Z,1015.93
2019-05-30T10:56:12.869Z,1015.94
2019-05-30T10:57:12.828Z,1015.93
2019-05-30T10:58:12.865Z,1015.96
2019-05-30T10:59:12.808Z,1015.97
2019-05-30T11:00:12.799Z,1015.97
2019-05-30T11:01:12.805Z,1015.95
2019-05-30T11:02:12.778Z,1015.98
2019-05-30T11:03:12.774Z,1015.94
2019-05-30T11:04:12.750Z,1015.95
2019-05-30T11:05:12.744Z,1016.00
2019-05-30T11:06:12.736Z,1016.04
2019-05-30T11:07:12.745Z,1016.01
2019-05-30T11:08:12.712Z,1016.00
2019-05-30T11:09:12.697Z,1016.04
2019-05-30T11:10:12.695Z,1016.01
2019-05-30T11:11:21.256Z,1016.06
2019-05-30T11:12:12.662Z,1016.01
2019-05-30T11:13:12.666Z,1016.06
2019-05-30T11:14:12.645Z,1016.06
2019-05-30T11:15:12.633Z,1016.05
2019-05-30T11:16:12.620Z,1016.02
2019-05-30T11:17:12.610Z,1016.06
2019-05-30T11:18:12.595Z,1016.03
2019-05-30T11:19:21.236Z,1016.01
2019-05-30T11:20:12.575Z,1015.98
2019-05-30T11:21:12.562Z,1016.06
2019-05-30T11:22:12.614Z,1016.05
2019-05-30T11:23:12.620Z,1016.05
2019-05-30T11:24:21.162Z,1016.06
2019-05-30T11:25:12.543Z,1016.06
2019-05-30T11:26:12.508Z,1016.08
2019-05-30T11:27:12.497Z,1016.04
2019-05-30T11:28:12.485Z,1016.07
2019-05-30T11:29:12.495Z,1016.03
2019-05-30T11:30:12.468Z,1016.05
2019-05-30T11:31:12.477Z,1016.07
2019-05-30T11:32:12.446Z,1016.04
2019-05-30T11:33:12.434Z,1016.09
2019-05-30T11:34:12.426Z,1016.05
2019-05-30T11:35:12.424Z,1016.08
2019-05-30T11:36:12.423Z,1016.08
2019-05-30T11:37:19.386Z,1016.07
2019-05-30T11:38:13.392Z,1016.07
2019-05-30T11:39:12.377Z,1016.03
2019-05-30T11:40:12.365Z,1016.08
2019-05-30T11:41:12.374Z,1016.12
2019-05-30T11:42:12.367Z,1016.11
2019-05-30T11:43:12.321Z,1016.15
2019-05-30T11:44:12.310Z,1016.13
2019-05-30T11:45:12.320Z,1016.17
2019-05-30T11:46:12.289Z,1016.15
2019-05-30T11:47:12.283Z,1016.16
2019-05-30T11:48:12.290Z,1016.19
2019-05-30T11:49:12.269Z,1016.18
2019-05-30T11:50:13.068Z,1016.20
2019-05-30T11:51:12.245Z,1016.14
2019-05-30T11:52:12.248Z,1016.28
2019-05-30T11:53:12.213Z,1016.18
2019-05-30T11:54:12.224Z,1016.20
2019-05-30T11:55:12.194Z,1016.17
2019-05-30T11:56:12.187Z,1016.17
2019-05-30T11:57:12.170Z,1016.17
2019-05-30T11:58:12.157Z,1016.21
2019-05-30T11:59:12.144Z,1016.27
2019-05-30T12:00:12.149Z,1016.27
2019-05-30T12:01:12.127Z,1016.25
2019-05-30T12:02:12.115Z,1016.27
2019-05-30T12:03:12.110Z,1016.32
2019-05-30T12:04:12.115Z,1016.29
2019-05-30T12:05:12.077Z,1016.23